createdAt,value
2023-02-25T00:00:19.432Z,95.75
2023-02-25T00:02:51.748Z,81.93
2023-02-25T00:05:24.454Z,128.55
2023-02-25T00:07:56.568Z,95.47
2023-02-25T00:10:28.548Z,81.43
2023-02-25T00:13:17.417Z,77.85
2023-02-25T00:15:50.159Z,56.05
2023-02-25T00:18:22.090Z,45.92
2023-02-25T00:20:54.147Z,66.68
2023-02-25T00:23:26.550Z,58.53
2023-02-25T00:25:59.810Z,58.95
2023-02-25T00:28:34.183Z,56.28
2023-02-25T00:31:08.045Z,50.40
2023-02-25T00:33:42.154Z,53.92
2023-02-25T00:36:18.957Z,39.60
2023-02-25T00:38:53.265Z,37.83
2023-02-25T00:41:27.746Z,33.75
2023-02-25T00:44:02.232Z,31.95
2023-02-25T00:46:34.783Z,31.80
2023-02-25T00:49:06.763Z,42.17
2023-02-25T00:51:38.847Z,50.65
2023-02-25T00:54:10.891Z,40.17
2023-02-25T00:56:42.848Z,39.72
2023-02-25T00:59:16.203Z,43.55
2023-02-25T01:01:48.900Z,27.48
2023-02-25T01:04:20.929Z,45.25
2023-02-25T01:06:54.698Z,36.55
2023-02-25T01:09:26.798Z,35.63
2023-02-25T01:11:58.770Z,39.67
2023-02-25T01:14:32.441Z,37.28
2023-02-25T01:17:04.382Z,34.97
2023-02-25T01:19:36.351Z,32.35
2023-02-25T01:22:08.312Z,34.60
2023-02-25T01:24:40.647Z,32.67
2023-02-25T01:27:12.592Z,41.45
2023-02-25T01:29:48.549Z,36.65
2023-02-25T01:32:20.558Z,36.20
2023-02-25T01:34:52.776Z,29.52
2023-02-25T01:37:24.699Z,32.38
2023-02-25T01:39:57.068Z,25.42
2023-02-25T01:42:29.131Z,37.45
2023-02-25T01:45:31.694Z,39.72
2023-02-25T01:48:11.771Z,31.55
2023-02-25T01:50:48.269Z,37.90
2023-02-25T01:53:23.711Z,38.50
2023-02-25T01:55:57.901Z,28.90
2023-02-25T01:58:30.425Z,30.67
2023-02-25T02:01:06.764Z,29.88
2023-02-25T02:03:40.860Z,32.50
2023-02-25T02:06:16.137Z,30.35
2023-02-25T02:08:49.316Z,35.83
2023-02-25T02:11:21.265Z,34.25
2023-02-25T02:13:56.580Z,30.20
2023-02-25T02:16:58.043Z,23.25
2023-02-25T02:19:39.432Z,23.65
2023-02-25T02:22:18.325Z,27.95
2023-02-25T02:25:29.048Z,29.55
2023-02-25T02:28:32.656Z,31.75
2023-02-25T02:31:17.400Z,32.85
2023-02-25T02:33:59.674Z,28.48
2023-02-25T02:36:44.440Z,31.48
2023-02-25T02:39:25.523Z,26.15
2023-02-25T02:42:05.803Z,26.58
2023-02-25T02:44:49.942Z,31.52
2023-02-25T02:47:25.666Z,25.48
2023-02-25T02:50:02.823Z,28.40
2023-02-25T02:52:40.609Z,26.60
2023-02-25T02:55:22.555Z,32.08
2023-02-25T02:58:01.426Z,24.17
2023-02-25T03:00:38.106Z,29.40
2023-02-25T03:03:15.036Z,21.80
2023-02-25T03:05:50.799Z,26.05
2023-02-25T03:08:26.892Z,43.78
2023-02-25T03:10:58.941Z,26.77
2023-02-25T03:13:30.946Z,35.92
2023-02-25T03:16:05.980Z,34.15
2023-02-25T03:18:47.802Z,31.17
2023-02-25T03:21:25.045Z,26.13
2023-02-25T03:23:58.219Z,32.40
2023-02-25T03:26:32.634Z,23.95
2023-02-25T03:29:16.628Z,29.98
2023-02-25T03:34:36.135Z,24.33
2023-02-25T03:37:14.931Z,30.37
2023-02-25T03:39:51.055Z,34.45
2023-02-25T03:42:29.069Z,26.77
2023-02-25T03:45:05.004Z,31.80
2023-02-25T03:47:38.477Z,30.58
2023-02-25T03:50:15.712Z,28.83
2023-02-25T03:52:51.026Z,28.95
2023-02-25T03:55:43.255Z,25.23
2023-02-25T03:58:15.272Z,27.42
2023-02-25T04:00:50.851Z,45.03
2023-02-25T04:03:22.937Z,33.33
2023-02-25T04:05:56.343Z,28.25
2023-02-25T04:08:28.339Z,27.75
2023-02-25T04:11:00.602Z,23.38
2023-02-25T04:13:32.585Z,34.38
2023-02-25T04:16:05.235Z,28.13
2023-02-25T04:18:37.585Z,22.17
2023-02-25T04:21:26.154Z,25.85
2023-02-25T04:23:58.683Z,24.80
2023-02-25T04:26:30.668Z,25.42
2023-02-25T04:29:03.848Z,25.67
2023-02-25T04:31:36.022Z,26.92
2023-02-25T04:34:08.005Z,25.17
2023-02-25T04:36:43.697Z,22.27
2023-02-25T04:39:16.983Z,20.08
2023-02-25T04:41:49.075Z,23.70
2023-02-25T04:44:20.973Z,21.83
2023-02-25T04:46:53.030Z,21.30
2023-02-25T04:49:25.084Z,20.58
2023-02-25T04:51:59.703Z,19.00
2023-02-25T04:54:31.597Z,22.35
2023-02-25T04:57:03.564Z,23.00
2023-02-25T04:59:35.585Z,22.65
2023-02-25T05:02:08.148Z,20.35
2023-02-25T05:04:41.808Z,21.17
2023-02-25T05:07:15.206Z,22.08
2023-02-25T05:09:47.393Z,22.45
2023-02-25T05:12:19.315Z,21.63
2023-02-25T05:14:51.235Z,28.05
2023-02-25T05:17:23.164Z,20.50
2023-02-25T05:19:55.202Z,21.48
2023-02-25T05:22:28.651Z,26.70
2023-02-25T05:25:00.559Z,20.83
2023-02-25T05:27:32.943Z,23.35
2023-02-25T05:30:06.268Z,19.33
2023-02-25T05:32:39.088Z,21.23
2023-02-25T05:35:11.526Z,22.63
2023-02-25T05:37:44.863Z,22.75
2023-02-25T05:40:17.085Z,21.23
2023-02-25T05:42:49.650Z,21.23
2023-02-25T05:45:21.583Z,21.25
2023-02-25T05:47:53.749Z,22.13
2023-02-25T05:50:25.764Z,19.60
2023-02-25T05:52:59.151Z,22.65
2023-02-25T05:55:31.075Z,42.40
2023-02-25T05:58:02.992Z,32.72
2023-02-25T06:00:35.276Z,24.23
2023-02-25T06:03:07.283Z,39.10
2023-02-25T06:05:40.154Z,18.25
2023-02-25T06:08:13.500Z,25.15
2023-02-25T06:10:45.398Z,32.97
2023-02-25T06:13:17.355Z,24.90
2023-02-25T06:15:49.287Z,24.00
2023-02-25T06:18:21.232Z,22.20
2023-02-25T06:20:53.176Z,22.55
2023-02-25T06:23:26.531Z,20.52
2023-02-25T06:25:59.026Z,29.70
2023-02-25T06:28:31.007Z,36.05
2023-02-25T06:31:06.816Z,31.45
2023-02-25T06:33:39.383Z,25.25
2023-02-25T06:36:12.634Z,33.33
2023-02-25T06:38:46.138Z,26.02
2023-02-25T06:41:20.045Z,22.98
2023-02-25T06:43:52.860Z,19.95
2023-02-25T06:46:26.706Z,21.70
2023-02-25T06:48:58.986Z,22.80
2023-02-25T06:51:30.941Z,18.10
2023-02-25T06:54:04.757Z,21.88
2023-02-25T06:56:37.219Z,22.85
2023-02-25T06:59:09.143Z,22.10
2023-02-25T07:01:41.818Z,28.90
2023-02-25T07:04:16.227Z,19.58
2023-02-25T07:06:48.244Z,30.75
2023-02-25T07:09:21.606Z,34.03
2023-02-25T07:11:53.548Z,22.02
2023-02-25T07:14:25.529Z,33.38
2023-02-25T07:16:57.440Z,23.10
2023-02-25T07:19:29.440Z,19.98
2023-02-25T07:22:01.483Z,19.40
2023-02-25T07:24:34.798Z,20.92
2023-02-25T07:27:06.687Z,24.95
2023-02-25T07:29:39.018Z,19.02
2023-02-25T07:32:11.106Z,21.60
2023-02-25T07:34:43.340Z,21.50
2023-02-25T07:37:15.290Z,20.48
2023-02-25T07:39:48.599Z,19.02
2023-02-25T07:42:20.536Z,19.85
2023-02-25T07:44:53.778Z,19.92
2023-02-25T07:47:25.914Z,19.77
2023-02-25T07:49:57.827Z,15.82
2023-02-25T07:52:29.738Z,17.25
2023-02-25T07:55:03.114Z,19.77
2023-02-25T07:57:35.809Z,18.90
2023-02-25T08:00:10.464Z,20.15
2023-02-25T08:02:45.673Z,20.38
2023-02-25T08:05:21.952Z,22.65
2023-02-25T08:07:53.935Z,19.10
2023-02-25T08:10:27.764Z,19.35
2023-02-25T08:12:59.641Z,69.32
2023-02-25T08:15:32.478Z,68.38
2023-02-25T08:18:04.520Z,33.58
2023-02-25T08:20:36.794Z,139.95
2023-02-25T08:23:08.782Z,21.40
2023-02-25T08:25:42.431Z,13.95
2023-02-25T08:28:14.425Z,15.82
2023-02-25T08:30:46.426Z,14.50
2023-02-25T08:33:19.209Z,17.17
2023-02-25T08:35:51.236Z,18.38
2023-02-25T08:38:23.162Z,18.23
2023-02-25T08:40:59.808Z,19.25
2023-02-25T08:43:32.201Z,19.23
2023-02-25T08:46:06.342Z,19.17
2023-02-25T08:48:38.456Z,20.90
2023-02-25T08:51:11.014Z,14.65
2023-02-25T08:53:42.959Z,13.90
2023-02-25T08:56:17.209Z,10.73
2023-02-25T08:58:49.119Z,7.93
2023-02-25T09:01:22.299Z,9.65
2023-02-25T09:03:54.570Z,7.28
2023-02-25T09:06:28.187Z,7.13
2023-02-25T09:09:00.166Z,6.53
2023-02-25T09:11:33.562Z,10.90
2023-02-25T09:14:05.716Z,5.82
2023-02-25T09:16:38.033Z,9.15
2023-02-25T09:19:12.544Z,5.10
2023-02-25T09:21:46.575Z,5.38
2023-02-25T09:24:18.855Z,4.38
2023-02-25T09:26:52.258Z,4.57
2023-02-25T09:29:24.198Z,7.05
2023-02-25T09:31:56.407Z,10.00
2023-02-25T09:34:28.420Z,4.57
2023-02-25T09:37:00.505Z,4.80
2023-02-25T09:39:32.513Z,5.63
2023-02-25T09:42:09.537Z,5.57
2023-02-25T09:44:45.550Z,9.77
2023-02-25T09:47:21.554Z,8.48
2023-02-25T09:49:58.475Z,16.10
2023-02-25T09:52:33.794Z,12.70
2023-02-25T09:55:15.681Z,26.80
2023-02-25T09:57:57.509Z,9.00
2023-02-25T10:00:33.981Z,14.27
2023-02-25T10:03:12.161Z,8.15
2023-02-25T10:05:49.840Z,8.20
2023-02-25T10:08:28.609Z,9.70
2023-02-25T10:11:06.328Z,7.43
2023-02-25T10:13:48.587Z,11.50
2023-02-25T10:16:36.851Z,11.45
2023-02-25T10:19:21.266Z,18.15
2023-02-25T10:22:09.924Z,8.27
2023-02-25T10:24:46.318Z,8.35
2023-02-25T10:27:24.766Z,6.97
2023-02-25T10:30:04.829Z,7.05
2023-02-25T10:32:39.586Z,6.20
2023-02-25T10:35:17.669Z,15.10
2023-02-25T10:37:49.936Z,37.47
2023-02-25T10:40:24.541Z,7.72
2023-02-25T10:43:01.794Z,6.50
2023-02-25T10:45:35.265Z,8.27
2023-02-25T10:48:13.981Z,5.85
2023-02-25T10:51:05.696Z,6.35
2023-02-25T10:53:38.831Z,6.97
2023-02-25T10:56:10.820Z,5.85
2023-02-25T10:58:46.881Z,15.75
2023-02-25T11:01:22.945Z,7.45
2023-02-25T11:04:00.901Z,8.70
2023-02-25T11:06:35.514Z,6.55
2023-02-25T11:09:29.167Z,7.13
2023-02-25T11:12:10.334Z,18.83
2023-02-25T11:14:42.231Z,8.32
2023-02-25T11:17:21.910Z,9.60
2023-02-25T11:20:00.205Z,8.68
2023-02-25T11:22:37.509Z,10.63
2023-02-25T11:25:18.436Z,11.18
2023-02-25T11:27:58.524Z,8.60
2023-02-25T11:30:32.936Z,12.15
2023-02-25T11:33:14.214Z,54.17
2023-02-25T11:35:46.236Z,9.48
2023-02-25T11:38:26.599Z,9.32
2023-02-25T11:43:38.370Z,11.13
2023-02-25T11:46:17.456Z,10.45
2023-02-25T11:48:54.268Z,10.35
2023-02-25T11:51:29.531Z,9.60
2023-02-25T11:54:18.243Z,8.75
2023-02-25T11:56:53.175Z,10.68
2023-02-25T11:59:33.903Z,9.82
2023-02-25T12:02:23.936Z,10.38
2023-02-25T12:05:22.299Z,11.70
2023-02-25T12:08:23.626Z,9.10
2023-02-25T12:11:35.440Z,9.30
2023-02-25T12:14:45.804Z,22.10
2023-02-25T12:20:44.945Z,12.43
2023-02-25T12:23:52.847Z,9.48
2023-02-25T12:26:41.499Z,12.90
2023-02-25T12:29:32.209Z,13.05
2023-02-25T12:32:28.125Z,20.77
2023-02-25T12:35:37.093Z,12.02
2023-02-25T12:38:55.603Z,53.33
2023-02-25T12:41:40.080Z,24.60
2023-02-25T12:44:38.786Z,67.55
2023-02-25T12:47:26.284Z,11.38
2023-02-25T12:50:40.186Z,18.40
2023-02-25T12:53:26.842Z,27.55
2023-02-25T12:56:34.771Z,27.95
2023-02-25T12:59:33.220Z,11.43
2023-02-25T13:02:28.795Z,9.32
2023-02-25T13:05:22.816Z,9.77
2023-02-25T13:08:20.656Z,9.77
2023-02-25T13:11:00.417Z,10.32
2023-02-25T13:14:08.560Z,16.40
2023-02-25T13:16:55.500Z,14.80
2023-02-25T13:19:46.547Z,35.20
2023-02-25T13:22:31.239Z,13.43
2023-02-25T13:25:14.554Z,12.57
2023-02-25T13:28:00.813Z,12.75
2023-02-25T13:30:46.867Z,11.55
2023-02-25T13:33:28.580Z,14.73
2023-02-25T13:36:09.269Z,31.92
2023-02-25T13:39:03.063Z,16.25
2023-02-25T13:41:49.978Z,13.07
2023-02-25T13:44:45.721Z,13.48
2023-02-25T13:47:42.661Z,16.67
2023-02-25T13:50:46.781Z,15.20
2023-02-25T13:53:34.991Z,11.75
2023-02-25T13:56:27.279Z,18.67
2023-02-25T13:59:16.209Z,33.20
2023-02-25T14:02:01.755Z,15.45
2023-02-25T14:05:08.186Z,15.82
2023-02-25T14:07:56.010Z,13.52
2023-02-25T14:10:50.985Z,14.93
2023-02-25T14:13:53.716Z,15.23
2023-02-25T14:16:46.488Z,12.45
2023-02-25T14:19:40.251Z,11.70
2023-02-25T14:22:30.207Z,14.63
2023-02-25T14:25:18.056Z,10.55
2023-02-25T14:28:03.214Z,10.30
2023-02-25T14:30:43.295Z,11.70
2023-02-25T14:33:36.033Z,11.55
2023-02-25T14:36:26.718Z,12.98
2023-02-25T14:39:20.521Z,10.45
2023-02-25T14:42:04.678Z,9.45
2023-02-25T14:44:43.130Z,9.68
2023-02-25T14:47:21.685Z,10.88
2023-02-25T14:50:00.359Z,9.20
2023-02-25T14:52:50.840Z,12.57
2023-02-25T14:55:55.466Z,8.70
2023-02-25T14:59:04.329Z,13.52
2023-02-25T15:02:02.836Z,19.77
2023-02-25T15:04:51.911Z,16.30
2023-02-25T15:07:42.558Z,10.45
2023-02-25T15:10:52.700Z,12.65
2023-02-25T15:13:40.991Z,17.42
2023-02-25T15:16:36.118Z,22.17
2023-02-25T15:19:24.575Z,16.25
2023-02-25T15:22:19.017Z,14.85
2023-02-25T15:24:52.616Z,16.42
2023-02-25T15:27:47.767Z,12.85
2023-02-25T15:30:22.193Z,14.07
2023-02-25T15:33:16.195Z,13.80
2023-02-25T15:35:57.074Z,14.23
2023-02-25T15:38:45.971Z,52.95
2023-02-25T15:41:58.394Z,10.93
2023-02-25T15:44:39.523Z,9.98
2023-02-25T15:47:29.641Z,9.80
2023-02-25T15:50:02.541Z,9.60
2023-02-25T15:52:59.523Z,14.98
2023-02-25T15:55:38.555Z,11.10
2023-02-25T15:58:42.378Z,12.45
2023-02-25T16:01:37.616Z,13.07
2023-02-25T16:04:41.799Z,11.30
2023-02-25T16:07:16.734Z,9.98
2023-02-25T16:09:54.185Z,24.00
2023-02-25T16:12:27.400Z,12.18
2023-02-25T16:15:02.244Z,20.13
2023-02-25T16:17:36.303Z,14.73
2023-02-25T16:20:18.757Z,12.18
2023-02-25T16:22:55.630Z,22.48
2023-02-25T16:25:35.313Z,11.85
2023-02-25T16:28:16.931Z,13.95
2023-02-25T16:30:54.861Z,9.80
2023-02-25T16:33:40.247Z,15.07
2023-02-25T16:36:19.872Z,32.00
2023-02-25T16:39:05.566Z,13.45
2023-02-25T16:41:39.357Z,12.07
2023-02-25T16:44:19.203Z,13.45
2023-02-25T16:46:53.181Z,10.68
2023-02-25T16:49:31.575Z,12.95
2023-02-25T16:52:04.470Z,12.32
2023-02-25T16:54:38.419Z,11.75
2023-02-25T16:57:19.808Z,12.55
2023-02-25T17:00:12.218Z,13.73
2023-02-25T17:02:47.177Z,12.65
2023-02-25T17:05:26.654Z,11.57
2023-02-25T17:08:01.228Z,11.75
2023-02-25T17:10:42.444Z,14.60
2023-02-25T17:13:23.104Z,14.60
2023-02-25T17:15:55.816Z,12.25
2023-02-25T17:18:31.326Z,16.85
2023-02-25T17:21:14.739Z,14.75
2023-02-25T17:23:47.377Z,21.73
2023-02-25T17:26:21.421Z,82.75
2023-02-25T17:28:55.950Z,13.02
2023-02-25T17:31:29.608Z,15.05
2023-02-25T17:34:04.066Z,17.48
2023-02-25T17:36:39.863Z,16.38
2023-02-25T17:39:15.101Z,17.45
2023-02-25T17:41:48.612Z,15.85
2023-02-25T17:44:47.808Z,29.02
2023-02-25T17:47:23.350Z,27.05
2023-02-25T17:49:56.725Z,49.25
2023-02-25T17:52:32.492Z,16.70
2023-02-25T17:55:07.052Z,16.42
2023-02-25T17:57:42.499Z,17.58
2023-02-25T18:00:22.164Z,19.25
2023-02-25T18:03:15.618Z,28.52
2023-02-25T18:05:53.222Z,16.48
2023-02-25T18:08:28.427Z,19.63
2023-02-25T18:11:03.528Z,24.50
2023-02-25T18:13:37.610Z,17.52
2023-02-25T18:16:38.573Z,14.23
2023-02-25T18:19:24.357Z,15.85
2023-02-25T18:21:56.574Z,14.75
2023-02-25T18:24:33.453Z,23.10
2023-02-25T18:27:29.330Z,17.48
2023-02-25T18:30:18.251Z,87.97
2023-02-25T18:32:50.821Z,16.40
2023-02-25T18:35:23.497Z,13.65
2023-02-25T18:37:57.418Z,14.35
2023-02-25T18:40:32.956Z,13.10
2023-02-25T18:43:05.500Z,13.82
2023-02-25T18:45:37.627Z,29.75
2023-02-25T18:48:10.425Z,22.65
2023-02-25T18:50:44.624Z,18.23
2023-02-25T18:53:20.246Z,13.25
2023-02-25T18:55:55.192Z,10.73
2023-02-25T18:58:27.148Z,13.05
2023-02-25T19:00:59.747Z,12.85
2023-02-25T19:03:36.501Z,10.77
2023-02-25T19:06:09.953Z,13.45
2023-02-25T19:08:41.952Z,13.18
2023-02-25T19:11:19.107Z,11.73
2023-02-25T19:13:52.008Z,13.52
2023-02-25T19:16:24.389Z,9.45
2023-02-25T19:18:56.516Z,11.50
2023-02-25T19:21:28.488Z,11.10
2023-02-25T19:24:00.460Z,9.32
2023-02-25T19:26:33.756Z,11.23
2023-02-25T19:29:06.048Z,10.48
2023-02-25T19:31:38.164Z,11.25
2023-02-25T19:34:10.216Z,16.35
2023-02-25T19:36:42.163Z,17.73
2023-02-25T19:39:14.129Z,59.65
2023-02-25T19:41:47.420Z,77.47
2023-02-25T19:44:19.357Z,10.23
2023-02-25T19:46:51.306Z,14.30
2023-02-25T19:49:23.439Z,9.40
2023-02-25T19:51:55.888Z,10.43
2023-02-25T19:54:28.025Z,8.02
2023-02-25T19:57:01.761Z,7.85
2023-02-25T19:59:33.673Z,9.55
2023-02-25T20:02:05.783Z,10.30
2023-02-25T20:04:37.986Z,7.75
2023-02-25T20:07:10.420Z,6.57
2023-02-25T20:09:42.590Z,8.50
2023-02-25T20:12:15.879Z,8.98
2023-02-25T20:14:47.885Z,8.07
2023-02-25T20:17:19.823Z,12.05
2023-02-25T20:19:51.750Z,7.70
2023-02-25T20:22:23.932Z,12.10
2023-02-25T20:24:55.848Z,8.63
2023-02-25T20:27:30.203Z,9.43
2023-02-25T20:30:02.214Z,12.82
2023-02-25T20:32:34.391Z,8.35
2023-02-25T20:35:07.481Z,15.00
2023-02-25T20:37:48.809Z,10.05
2023-02-25T20:40:20.958Z,8.43
2023-02-25T20:42:54.571Z,10.68
2023-02-25T20:45:29.708Z,10.70
2023-02-25T20:48:01.919Z,10.43
2023-02-25T20:50:34.538Z,11.80
2023-02-25T20:53:06.808Z,10.77
2023-02-25T20:55:38.781Z,14.82
2023-02-25T20:58:12.102Z,9.60
2023-02-25T21:00:44.108Z,18.70
2023-02-25T21:03:16.122Z,13.20
2023-02-25T21:05:48.124Z,14.38
2023-02-25T21:08:20.033Z,12.35
2023-02-25T21:10:52.012Z,13.30
2023-02-25T21:13:25.371Z,12.27
2023-02-25T21:15:58.890Z,12.20
2023-02-25T21:18:31.168Z,9.05
2023-02-25T21:21:07.782Z,9.82
2023-02-25T21:23:41.001Z,11.93
2023-02-25T21:26:13.487Z,10.52
2023-02-25T21:28:46.893Z,8.63
2023-02-25T21:31:19.031Z,12.15
2023-02-25T21:33:51.203Z,8.55
2023-02-25T21:36:23.489Z,9.75
2023-02-25T21:38:56.176Z,10.15
2023-02-25T21:41:28.190Z,9.18
2023-02-25T21:44:01.760Z,11.25
2023-02-25T21:46:33.725Z,12.25
2023-02-25T21:49:05.751Z,9.40
2023-02-25T21:51:37.922Z,8.32
2023-02-25T21:54:09.961Z,9.88
2023-02-25T21:56:42.039Z,11.13
2023-02-25T21:59:16.405Z,7.22
2023-02-25T22:01:48.436Z,8.13
2023-02-25T22:04:20.511Z,9.45
2023-02-25T22:06:52.505Z,8.07
2023-02-25T22:09:24.457Z,8.80
2023-02-25T22:11:57.156Z,8.15
2023-02-25T22:14:30.501Z,9.15
2023-02-25T22:17:02.475Z,6.13
2023-02-25T22:19:34.463Z,7.63
2023-02-25T22:22:06.467Z,7.57
2023-02-25T22:24:38.405Z,7.13
2023-02-25T22:27:10.368Z,8.27
2023-02-25T22:29:43.645Z,6.28
2023-02-25T22:32:15.851Z,6.53
2023-02-25T22:34:47.905Z,8.63
2023-02-25T22:37:19.843Z,5.55
2023-02-25T22:39:51.887Z,5.95
2023-02-25T22:42:23.899Z,8.27
2023-02-25T22:44:57.178Z,6.38
2023-02-25T22:47:29.121Z,9.48
2023-02-25T22:50:01.054Z,6.93
2023-02-25T22:52:33.021Z,7.97
2023-02-25T22:55:05.955Z,7.70
2023-02-25T22:57:37.914Z,7.75
2023-02-25T23:00:16.879Z,6.55
2023-02-25T23:02:49.062Z,5.47
2023-02-25T23:05:21.017Z,5.63
2023-02-25T23:07:53.016Z,5.13
2023-02-25T23:10:25.098Z,6.60
2023-02-25T23:12:58.297Z,6.43
2023-02-25T23:15:32.458Z,5.40
2023-02-25T23:18:06.967Z,5.95
2023-02-25T23:20:39.387Z,4.78
2023-02-25T23:23:13.645Z,3.92
2023-02-25T23:25:52.197Z,5.35
2023-02-25T23:28:24.221Z,6.97
2023-02-25T23:30:57.588Z,3.83
2023-02-25T23:33:30.036Z,4.97
2023-02-25T23:36:06.368Z,4.00
2023-02-25T23:38:38.318Z,4.00
2023-02-25T23:41:10.266Z,10.05
2023-02-25T23:43:42.245Z,5.30
2023-02-25T23:46:15.615Z,5.35
2023-02-25T23:48:47.893Z,5.32
2023-02-25T23:51:19.846Z,6.03
2023-02-25T23:53:52.400Z,7.32
2023-02-25T23:56:27.271Z,5.40
2023-02-25T23:58:59.867Z,4.32
